Time;durP1;ratioP1;P1;durP2;ratioP2;P2;SDS_P1;SDS_P2;PMS_P1;PMS_P2;Temp;Humidity;BMP_temperature;BMP_pressure;BME280_temperature;BME280_humidity;BME280_pressure;Samples;Min_cycle;Max_cycle;Signal;HPM_P1;HPM_P2
2023/10/07 00:00:26;;;;;;;12.70;5.43;;;;;;;16.90;100.00;101956.47;5053759;28;20464;-48
2023/10/07 00:02:53;;;;;;;14.32;5.28;;;;;;;16.97;100.00;101969.47;5052019;28;20033;-52
2023/10/07 00:05:26;;;;;;;12.38;4.63;;;;;;;16.53;100.00;101878.16;5052232;28;20037;-46
2023/10/07 00:07:52;;;;;;;10.23;4.45;;;;;;;16.93;100.00;101935.94;5052558;28;20128;-46
2023/10/07 00:10:25;;;;;;;14.07;4.53;;;;;;;16.85;100.00;101917.63;5053447;28;20043;-50
2023/10/07 00:12:51;;;;;;;10.00;4.45;;;;;;;16.80;100.00;101906.34;5053501;28;20035;-52
2023/10/07 00:15:17;;;;;;;14.10;4.47;;;;;;;17.13;100.00;101954.56;5053234;28;20041;-46
2023/10/07 00:17:43;;;;;;;10.77;4.28;;;;;;;17.22;100.00;101943.56;5052930;28;20490;-50
2023/10/07 00:20:11;;;;;;;9.90;3.55;;;;;;;17.07;100.00;101920.28;5053612;28;20041;-48
2023/10/07 00:22:41;;;;;;;8.48;3.75;;;;;;;17.30;100.00;101941.47;5052978;28;20084;-49
2023/10/07 00:25:13;;;;;;;10.73;4.37;;;;;;;17.33;100.00;101944.00;5053175;28;20029;-49
2023/10/07 00:27:38;;;;;;;9.32;3.88;;;;;;;17.31;100.00;101932.53;5053372;28;20283;-46
2023/10/07 00:30:13;;;;;;;7.60;3.60;;;;;;;17.36;100.00;101932.34;5052968;28;20106;-51
2023/10/07 00:32:39;;;;;;;10.05;4.63;;;;;;;16.98;100.00;101867.47;5053537;28;20033;-47
2023/10/07 00:35:07;;;;;;;11.82;3.95;;;;;;;17.27;100.00;101914.09;5053219;28;20454;-47
2023/10/07 00:37:37;;;;;;;9.82;3.75;;;;;;;17.04;100.00;101875.19;5052727;28;20032;-49
2023/10/07 00:42:55;;;;;;;10.07;3.53;;;;;;;16.91;100.00;101846.50;5028967;28;20041;-47
2023/10/07 00:45:24;;;;;;;9.70;3.70;;;;;;;16.69;100.00;101820.84;5051809;28;20037;-47
2023/10/07 00:47:51;;;;;;;8.07;3.28;;;;;;;17.33;100.00;101953.75;5053199;28;20045;-47
2023/10/07 00:50:17;;;;;;;8.55;3.35;;;;;;;17.06;100.00;101912.34;5051819;28;20060;-47
2023/10/07 00:55:27;;;;;;;9.95;3.80;;;;;;;17.40;100.00;101955.22;5051462;28;20472;-52
2023/10/07 00:58:03;;;;;;;9.43;3.92;;;;;;;17.02;100.00;101892.97;5052520;28;20495;-49
2023/10/07 01:00:40;;;;;;;10.93;3.95;;;;;;;17.47;100.00;101955.81;5051590;28;20037;-54
2023/10/07 01:03:16;;;;;;;8.40;3.67;;;;;;;17.00;100.00;101878.03;5052621;28;20524;-49
2023/10/07 01:08:34;;;;;;;8.30;3.03;;;;;;;16.98;100.00;101878.09;5052679;28;20045;-48
2023/10/07 01:11:59;;;;;;;10.18;3.90;;;;;;;17.50;100.00;101961.00;5051377;28;20086;-48
2023/10/07 01:13:57;;;;;;;11.23;3.80;;;;;;;17.49;100.00;101953.94;5047567;28;20041;-47
2023/10/07 01:21:55;;;;;;;13.55;4.32;;;;;;;17.40;100.00;101933.91;5052428;28;20488;-46
2023/10/07 01:29:50;;;;;;;16.73;4.65;;;;;;;17.48;100.00;101929.16;5052381;28;20048;-53
2023/10/07 01:32:16;;;;;;;11.80;4.18;;;;;;;17.55;100.00;101938.59;5052278;28;20036;-47
2023/10/07 01:34:47;;;;;;;13.40;4.53;;;;;;;17.53;100.00;101935.13;5051086;28;20045;-46
2023/10/07 01:37:15;;;;;;;13.05;4.72;;;;;;;17.14;100.00;101876.50;5051062;28;20460;-51
2023/10/07 01:39:42;;;;;;;11.85;4.68;;;;;;;17.40;100.00;101916.16;5050897;28;20463;-51
2023/10/07 01:42:12;;;;;;;15.70;4.72;;;;;;;16.98;100.00;101847.97;5052098;28;20444;-51
2023/10/07 01:44:40;;;;;;;14.80;4.60;;;;;;;17.34;100.00;101912.88;5052239;28;20033;-47
2023/10/07 01:47:16;;;;;;;17.30;5.40;;;;;;;17.01;100.00;101854.03;5051813;28;20029;-46
2023/10/07 01:49:43;;;;;;;12.00;4.35;;;;;;;17.46;100.00;101925.66;5050729;28;20029;-49
2023/10/07 01:52:09;;;;;;;12.18;4.63;;;;;;;17.30;100.00;101892.69;5052108;28;20120;-51
2023/10/07 01:54:34;;;;;;;11.35;5.18;;;;;;;17.50;100.00;101937.94;5052246;28;20112;-47
2023/10/07 01:57:04;;;;;;;11.85;4.55;;;;;;;17.03;100.00;101849.50;5050687;28;20040;-48
2023/10/07 01:59:30;;;;;;;12.63;4.87;;;;;;;17.05;100.00;101852.97;5052030;28;20040;-50
2023/10/07 02:02:03;;;;;;;13.05;4.75;;;;;;;17.40;100.00;101923.28;5051705;28;20307;-47
2023/10/07 02:04:29;;;;;;;14.70;4.57;;;;;;;17.05;100.00;101852.97;5051847;28;20177;-48
2023/10/07 02:06:54;;;;;;;12.07;4.38;;;;;;;17.15;100.00;101866.72;5056071;28;20483;-47
2023/10/07 02:09:24;;;;;;;15.68;5.22;;;;;;;17.27;100.00;101888.38;5054806;28;20051;-47
2023/10/07 02:12:33;;;;;;;15.02;5.05;;;;;;;17.42;100.00;101924.94;5055791;28;20033;-48
2023/10/07 02:14:52;;;;;;;18.83;6.20;;;;;;;16.98;100.00;101847.97;5053505;28;20049;-47
2023/10/07 02:17:19;;;;;;;17.02;4.82;;;;;;;17.36;100.00;101921.69;5055981;28;20040;-47
2023/10/07 02:19:44;;;;;;;15.48;4.80;;;;;;;17.32;100.00;101910.31;5055883;28;20037;-48
2023/10/07 02:22:21;;;;;;;12.35;4.78;;;;;;;16.95;100.00;101853.44;5055787;28;20440;-47
2023/10/07 02:24:52;;;;;;;12.73;4.65;;;;;;;17.39;100.00;101919.78;5055570;28;20091;-49
2023/10/07 02:27:19;;;;;;;15.38;4.82;;;;;;;17.39;100.00;101935.75;5055840;28;20076;-47
2023/10/07 02:29:48;;;;;;;14.25;5.07;;;;;;;17.45;100.00;101937.25;5055730;28;20468;-48
2023/10/07 02:32:17;;;;;;;15.50;5.10;;;;;;;17.48;100.00;101923.81;5054206;28;20543;-49
2023/10/07 02:34:52;;;;;;;18.25;4.68;;;;;;;17.20;100.00;101876.25;5055497;28;20040;-48
2023/10/07 02:37:21;;;;;;;9.95;4.28;;;;;;;16.95;100.00;101829.50;5055154;28;20056;-51
2023/10/07 02:39:54;;;;;;;14.95;4.80;;;;;;;16.98;100.00;101846.19;5054018;28;20365;-49
2023/10/07 02:42:23;;;;;;;8.82;4.05;;;;;;;17.35;100.00;101902.19;5055476;28;20029;-46
2023/10/07 02:45:00;;;;;;;12.45;4.00;;;;;;;16.91;100.00;101819.91;5054680;28;20029;-47
2023/10/07 02:47:26;;;;;;;15.15;4.68;;;;;;;17.37;100.00;101897.66;5055135;28;20513;-47
2023/10/07 02:49:52;;;;;;;11.30;4.90;;;;;;;16.91;100.00;101831.41;5055067;28;20069;-50
2023/10/07 02:52:19;;;;;;;10.05;4.18;;;;;;;17.38;100.00;101903.84;5053985;28;20130;-46
2023/10/07 02:54:45;;;;;;;15.45;4.72;;;;;;;17.41;100.00;101907.25;5055057;28;20041;-50
2023/10/07 02:57:24;;;;;;;13.40;5.03;;;;;;;17.12;100.00;101838.47;5053780;28;20033;-50
2023/10/07 03:00:00;;;;;;;13.82;4.80;;;;;;;17.03;100.00;101833.53;5055075;28;20044;-49
2023/10/07 03:02:37;;;;;;;17.70;5.38;;;;;;;17.11;100.00;101844.72;5054896;28;20033;-48
2023/10/07 03:07:41;;;;;;;12.57;4.63;;;;;;;17.00;100.00;101822.16;5053848;28;20033;-47
2023/10/07 03:10:19;;;;;;;12.57;5.45;;;;;;;17.43;100.00;101891.19;5053538;28;20055;-48
2023/10/07 03:12:48;;;;;;;16.70;4.63;;;;;;;17.43;100.00;101888.53;5054581;28;20072;-51
2023/10/07 03:15:41;;;;;;;14.75;4.78;;;;;;;17.11;100.00;101834.06;5053399;28;20075;-46
2023/10/07 03:18:21;;;;;;;15.65;5.40;;;;;;;17.28;100.00;101866.13;5054673;28;20083;-50
2023/10/07 03:20:58;;;;;;;11.70;4.07;;;;;;;17.51;100.00;101909.50;5054261;28;20114;-48
2023/10/07 03:23:26;;;;;;;12.82;4.15;;;;;;;17.50;100.00;101902.44;5054772;28;20044;-48
2023/10/07 03:28:20;;;;;;;14.05;4.75;;;;;;;17.48;100.00;101896.34;5053435;28;20106;-50
2023/10/07 03:30:51;;;;;;;14.15;5.00;;;;;;;17.50;100.00;101907.78;5054458;28;20039;-46
2023/10/07 03:33:23;;;;;;;12.27;4.30;;;;;;;17.42;100.00;101890.31;5053300;28;20036;-47
2023/10/07 03:38:25;;;;;;;15.27;5.13;;;;;;;17.02;100.00;101812.31;5054589;28;20029;-49
2023/10/07 03:40:55;;;;;;;14.30;4.22;;;;;;;17.13;100.00;101826.88;5053048;28;20396;-46
2023/10/07 03:43:26;;;;;;;14.75;4.60;;;;;;;17.53;100.00;101899.66;5054391;28;20057;-52
2023/10/07 03:45:51;;;;;;;;;;;;;;;17.53;100.00;101907.63;5054625;28;20037;-50
2023/10/07 03:48:31;;;;;;;16.05;4.03;;;;;;;17.54;100.00;101898.72;5052772;28;19921;-49
2023/10/07 03:51:05;;;;;;;15.32;4.63;;;;;;;17.57;100.00;101894.13;5054248;28;20039;-50
2023/10/07 03:53:44;;;;;;;12.50;4.65;;;;;;;17.57;100.00;101887.97;5052825;28;20044;-52
2023/10/07 03:56:10;;;;;;;13.55;3.90;;;;;;;17.54;100.00;101888.94;5053940;28;20048;-49
2023/10/07 03:58:36;;;;;;;13.60;4.10;;;;;;;17.52;100.00;101896.13;5053797;28;20025;-47
2023/10/07 04:01:11;;;;;;;9.98;4.28;;;;;;;17.49;100.00;101890.06;5053946;28;20287;-50
2023/10/07 04:03:38;;;;;;;13.95;4.13;;;;;;;17.52;100.00;101901.44;5053942;28;20103;-48
2023/10/07 04:06:04;;;;;;;15.68;4.63;;;;;;;17.51;100.00;101898.88;5054007;28;20213;-50
2023/10/07 04:08:32;;;;;;;16.00;4.32;;;;;;;17.47;100.00;101900.78;5053468;28;20045;-51
2023/10/07 04:10:58;;;;;;;9.95;4.13;;;;;;;17.30;100.00;101855.44;5053533;28;20028;-46
2023/10/07 04:13:24;;;;;;;18.35;4.35;;;;;;;17.49;100.00;101879.41;5053677;28;20052;-49
2023/10/07 04:15:53;;;;;;;14.82;4.18;;;;;;;17.54;100.00;101896.94;5053607;28;20029;-47
2023/10/07 04:18:37;;;;;;;11.88;4.45;;;;;;;17.55;100.00;101881.84;5051850;28;20530;-48
2023/10/07 04:21:02;;;;;;;12.73;4.00;;;;;;;17.44;100.00;101867.19;5053340;28;20056;-48
2023/10/07 04:23:28;;;;;;;17.27;4.60;;;;;;;17.42;100.00;101847.75;5053343;28;20037;-47
2023/10/07 04:26:04;;;;;;;14.98;4.25;;;;;;;17.51;100.00;101872.25;5053357;28;20380;-50
2023/10/07 04:28:30;;;;;;;10.43;4.50;;;;;;;17.54;100.00;101880.97;5053193;28;20025;-48
2023/10/07 04:30:55;;;;;;;10.75;4.30;;;;;;;17.54;100.00;101886.28;5053457;28;20044;-51
2023/10/07 04:33:39;;;;;;;10.65;3.75;;;;;;;17.52;100.00;101877.47;5053179;28;20037;-49
2023/10/07 04:36:04;;;;;;;14.23;4.20;;;;;;;17.52;100.00;101884.59;5053077;28;20029;-47
2023/10/07 04:38:52;;;;;;;10.50;3.40;;;;;;;17.49;100.00;101868.75;5053272;28;20044;-49
2023/10/07 04:43:49;;;;;;;13.13;4.03;;;;;;;16.96;100.00;101802.81;5051776;28;20037;-49
2023/10/07 04:46:22;;;;;;;12.40;3.80;;;;;;;17.30;100.00;101874.94;5051826;28;20032;-50
2023/10/07 04:49:12;;;;;;;13.68;4.45;;;;;;;16.96;100.00;101818.78;5052768;28;20040;-53
2023/10/07 04:54:35;;;;;;;14.30;4.03;;;;;;;17.10;100.00;101861.63;5052826;28;20441;-52
2023/10/07 04:57:00;;;;;;;9.85;4.45;;;;;;;17.19;100.00;101863.84;5051376;28;20037;-48
2023/10/07 04:59:27;;;;;;;10.73;4.38;;;;;;;16.73;100.00;101776.34;5052879;28;20502;-51
2023/10/07 05:02:01;;;;;;;10.15;3.58;;;;;;;16.82;100.00;101806.09;5052594;28;20032;-49
2023/10/07 05:04:28;;;;;;;8.77;3.38;;;;;;;17.17;100.00;101857.75;5052687;28;20033;-48
2023/10/07 05:06:54;;;;;;;8.05;3.60;;;;;;;16.80;100.00;101791.13;5052653;28;20044;-48
2023/10/07 05:09:21;;;;;;;9.57;3.78;;;;;;;16.81;100.00;101791.03;5052545;28;20082;-48
2023/10/07 05:11:47;;;;;;;9.18;3.80;;;;;;;16.88;100.00;101811.13;5052576;28;20450;-52
2023/10/07 05:14:22;;;;;;;11.30;3.92;;;;;;;17.15;100.00;101872.06;5052701;28;20184;-51
2023/10/07 05:16:47;;;;;;;8.38;3.80;;;;;;;17.18;100.00;101879.91;5052548;28;20056;-47
2023/10/07 05:19:22;;;;;;;10.48;4.38;;;;;;;16.80;100.00;101817.72;5052410;28;20072;-52
2023/10/07 05:21:59;;;;;;;10.15;3.90;;;;;;;17.29;100.00;101904.25;5034961;28;20445;-48
2023/10/07 05:24:28;;;;;;;10.85;3.90;;;;;;;17.23;100.00;101894.75;5051777;28;20032;-49
2023/10/07 05:26:55;;;;;;;8.68;3.80;;;;;;;16.91;100.00;101828.75;5052460;28;20043;-48
2023/10/07 05:29:20;;;;;;;9.25;3.78;;;;;;;17.26;100.00;101886.63;5052248;28;20423;-48
2023/10/07 05:31:45;;;;;;;13.05;3.97;;;;;;;17.22;100.00;101884.19;5052213;28;20045;-47
2023/10/07 05:34:11;;;;;;;16.55;4.70;;;;;;;17.21;100.00;101883.31;5052336;28;20037;-50
2023/10/07 05:36:38;;;;;;;16.15;4.57;;;;;;;17.15;100.00;101872.94;5052009;28;20123;-49
2023/10/07 05:39:05;;;;;;;13.48;4.05;;;;;;;17.10;100.00;101871.41;5033943;28;20124;-49
2023/10/07 05:41:32;;;;;;;11.43;4.22;;;;;;;17.19;100.00;101893.13;5052102;28;20041;-50
2023/10/07 05:43:57;;;;;;;13.05;3.75;;;;;;;17.19;100.00;101909.09;5052140;28;20041;-47
2023/10/07 05:46:22;;;;;;;8.55;3.85;;;;;;;17.18;100.00;101899.41;5051963;28;20037;-52
2023/10/07 05:48:48;;;;;;;10.30;4.55;;;;;;;17.17;100.00;101897.66;5051963;28;20037;-48
2023/10/07 05:51:13;;;;;;;9.98;4.40;;;;;;;16.85;100.00;101824.56;5050806;28;20033;-47
2023/10/07 05:53:40;;;;;;;11.25;4.07;;;;;;;16.91;100.00;101833.19;5050833;28;20056;-46
2023/10/07 05:56:06;;;;;;;14.98;4.47;;;;;;;17.14;100.00;101871.19;5052005;28;20120;-50
2023/10/07 05:58:43;;;;;;;9.65;3.72;;;;;;;17.06;100.00;101852.03;5050493;28;20129;-52
2023/10/07 06:01:11;;;;;;;11.90;4.13;;;;;;;17.06;100.00;101862.69;5051882;28;20083;-49
2023/10/07 06:03:37;;;;;;;11.07;3.75;;;;;;;17.21;100.00;101879.78;5051443;28;20029;-52
2023/10/07 06:06:04;;;;;;;11.48;3.63;;;;;;;17.14;100.00;101868.53;5052013;28;20037;-48
2023/10/07 06:08:30;;;;;;;15.82;4.63;;;;;;;17.17;100.00;101875.50;5051859;28;20033;-50
2023/10/07 06:10:56;;;;;;;13.80;4.18;;;;;;;16.98;100.00;101822.25;5051942;28;20591;-50
2023/10/07 06:13:27;;;;;;;15.63;4.15;;;;;;;17.27;100.00;101875.06;5051797;28;20037;-47
2023/10/07 06:15:59;;;;;;;15.40;4.70;;;;;;;17.23;100.00;101875.25;5051718;28;20033;-48
2023/10/07 06:18:25;;;;;;;17.13;4.93;;;;;;;16.90;100.00;101813.72;5050450;28;20037;-49
2023/10/07 06:20:51;;;;;;;11.55;4.50;;;;;;;16.84;100.00;101808.69;5050296;28;20045;-49
2023/10/07 06:23:20;;;;;;;12.45;4.53;;;;;;;16.75;100.00;101798.44;5051393;28;20040;-50
2023/10/07 06:25:50;;;;;;;8.68;4.28;;;;;;;17.13;100.00;101868.59;5051312;28;20037;-51
2023/10/07 06:31:11;;;;;;;11.45;4.28;;;;;;;16.78;100.00;101790.34;5051648;28;20440;-48
2023/10/07 06:33:41;;;;;;;17.33;4.93;;;;;;;16.75;100.00;101788.66;5051335;28;20559;-47
2023/10/07 06:36:07;;;;;;;15.23;5.40;;;;;;;16.85;100.00;101797.97;5051315;28;20400;-46
2023/10/07 06:38:33;;;;;;;14.32;4.85;;;;;;;16.89;100.00;101796.06;5051315;28;20411;-48
2023/10/07 06:40:59;;;;;;;12.73;4.60;;;;;;;17.29;100.00;101854.56;5049392;28;20468;-47
2023/10/07 06:43:25;;;;;;;14.23;5.25;;;;;;;17.20;100.00;101846.09;5051692;28;20033;-49
2023/10/07 06:45:54;;;;;;;16.55;4.50;;;;;;;17.22;100.00;101866.38;5050318;28;20175;-50
2023/10/07 06:48:23;;;;;;;14.27;5.45;;;;;;;17.27;100.00;101888.38;5051112;28;20179;-51
2023/10/07 06:50:52;;;;;;;19.25;4.70;;;;;;;17.29;100.00;101896.25;5052572;28;20372;-48
2023/10/07 06:53:22;;;;;;;11.82;4.45;;;;;;;16.85;100.00;101831.66;5054485;28;20039;-46
2023/10/07 06:55:51;;;;;;;10.32;4.45;;;;;;;17.17;100.00;101880.81;5054380;28;20033;-49
2023/10/07 06:58:22;;;;;;;9.32;4.28;;;;;;;17.34;100.00;101895.13;5053320;28;20033;-53
2023/10/07 07:00:49;;;;;;;15.13;5.20;;;;;;;17.48;100.00;101902.53;5054701;28;20575;-47
2023/10/07 07:03:18;;;;;;;14.23;4.63;;;;;;;17.17;100.00;101833.81;5053291;28;20041;-47
2023/10/07 07:05:45;;;;;;;11.13;4.70;;;;;;;17.50;100.00;101875.81;5053368;28;20036;-51
2023/10/07 07:08:11;;;;;;;13.35;4.82;;;;;;;17.37;100.00;101839.09;5054501;28;20029;-48
2023/10/07 07:10:37;;;;;;;13.55;4.88;;;;;;;17.60;100.00;101864.72;5037100;28;20033;-46
2023/10/07 07:13:12;;;;;;;12.50;5.30;;;;;;;18.02;100.00;101920.50;5054695;28;20118;-52
2023/10/07 07:15:38;;;;;;;16.83;5.30;;;;;;;17.98;100.00;101911.78;5054594;28;20033;-46
2023/10/07 07:23:32;;;;;;;12.52;4.25;;;;;;;18.09;100.00;101943.28;5053428;28;20047;-47
2023/10/07 07:26:09;;;;;;;18.95;5.18;;;;;;;18.06;100.00;101955.88;5054438;28;20039;-47
2023/10/07 07:28:35;;;;;;;16.45;5.07;;;;;;;17.55;100.00;101887.16;5054101;28;20484;-49
2023/10/07 07:31:02;;;;;;;16.45;5.13;;;;;;;17.51;100.00;101888.22;5052925;28;20033;-48
2023/10/07 07:33:35;;;;;;;13.38;4.82;;;;;;;17.82;100.00;101955.16;5054154;28;20119;-48
2023/10/07 07:36:06;;;;;;;14.80;5.43;;;;;;;17.83;100.00;101976.38;5053010;28;20036;-49
2023/10/07 07:38:43;;;;;;;18.45;5.18;;;;;;;17.84;100.00;101971.94;5052686;28;20037;-47
2023/10/07 07:41:09;;;;;;;11.55;4.78;;;;;;;17.86;100.00;101948.78;5053843;28;20498;-51
2023/10/07 07:43:39;;;;;;;13.70;4.53;;;;;;;17.54;100.00;101891.63;5053687;28;20048;-47
2023/10/07 07:46:18;;;;;;;15.73;4.95;;;;;;;17.56;100.00;101872.94;5053019;28;20028;-46
2023/10/07 07:48:50;;;;;;;15.10;4.63;;;;;;;18.04;100.00;101947.91;5053890;28;20059;-49
2023/10/07 07:51:17;;;;;;;12.52;4.72;;;;;;;17.57;100.00;101851.53;5053326;28;20036;-46
2023/10/07 07:53:45;;;;;;;18.90;5.22;;;;;;;17.81;100.00;101885.06;5052585;28;20109;-48
2023/10/07 07:56:13;;;;;;;13.98;5.38;;;;;;;18.23;100.00;101935.50;5053320;28;20035;-46
2023/10/07 07:58:47;;;;;;;16.13;4.88;;;;;;;18.30;100.00;101942.25;5053864;28;20299;-47
2023/10/07 08:01:17;;;;;;;10.00;4.35;;;;;;;18.30;100.00;101939.59;5052398;28;20400;-50
2023/10/07 08:03:43;;;;;;;15.10;4.88;;;;;;;18.37;100.00;101924.16;5052975;28;20480;-48
2023/10/07 08:06:13;;;;;;;14.57;4.35;;;;;;;18.20;100.00;101884.13;5053730;28;20033;-48
2023/10/07 08:08:39;;;;;;;14.35;4.15;;;;;;;18.33;100.00;101891.47;5053384;28;20029;-47
2023/10/07 08:11:05;;;;;;;16.80;4.63;;;;;;;18.67;100.00;101943.22;5052658;28;20037;-50
2023/10/07 08:13:31;;;;;;;14.98;5.13;;;;;;;18.43;100.00;101897.22;5053661;28;20036;-51
2023/10/07 08:15:56;;;;;;;13.90;4.30;;;;;;;18.55;100.00;101899.34;5052647;28;20419;-51
2023/10/07 08:18:28;;;;;;;12.95;4.43;;;;;;;18.63;100.00;101912.28;5051876;28;20037;-52
2023/10/07 08:21:06;;;;;;;15.75;5.20;;;;;;;18.61;100.00;101899.03;5052656;28;20041;-46
2023/10/07 08:23:35;;;;;;;14.73;4.90;;;;;;;18.85;100.00;101929.84;5053402;28;20045;-49
2023/10/07 08:26:12;;;;;;;15.27;4.97;;;;;;;19.01;100.00;101943.28;5053276;28;20447;-50
2023/10/07 08:28:46;;;;;;;19.52;4.97;;;;;;;19.13;100.00;101964.00;5052889;28;20033;-47
2023/10/07 08:31:19;;;;;;;15.60;5.18;;;;;;;18.87;100.00;101900.41;5052475;28;20037;-52
2023/10/07 08:34:33;;;;;;;14.68;4.55;;;;;;;19.36;100.00;101961.03;5052650;28;20465;-46
2023/10/07 08:36:36;;;;;;;15.75;4.82;;;;;;;19.56;100.00;101968.91;5051793;28;20044;-48
2023/10/07 08:39:06;;;;;;;17.95;5.10;;;;;;;19.70;100.00;101964.69;5051361;28;20033;-50
2023/10/07 08:41:32;;;;;;;9.40;4.50;;;;;;;19.49;100.00;101910.56;5053040;28;20051;-48
2023/10/07 08:44:14;;;;;;;15.38;4.75;;;;;;;20.05;100.00;101956.50;5052308;28;20395;-46
2023/10/07 08:46:40;;;;;;;13.52;4.75;;;;;;;20.50;100.00;101987.91;5053052;28;20086;-51
2023/10/07 08:49:13;;;;;;;11.32;4.50;;;;;;;20.57;100.00;101932.25;5052439;28;20515;-46
2023/10/07 08:51:41;;;;;;;18.55;5.45;;;;;;;21.12;100.00;101944.22;5052745;28;20037;-47
2023/10/07 08:54:17;;;;;;;12.15;4.35;;;;;;;21.27;100.00;101950.47;5052394;28;20387;-50
2023/10/07 08:56:54;;;;;;;12.98;4.38;;;;;;;22.09;100.00;102017.84;5052356;28;20380;-47
2023/10/07 08:59:25;;;;;;;14.15;5.07;;;;;;;22.16;100.00;101990.53;5052704;28;20052;-45
2023/10/07 09:02:00;;;;;;;14.05;4.63;;;;;;;22.59;100.00;102006.63;5050662;28;20074;-49
2023/10/07 09:04:26;;;;;;;12.82;5.55;;;;;;;22.77;100.00;101963.38;5051102;28;20502;-51
2023/10/07 09:06:51;;;;;;;15.63;5.10;;;;;;;23.14;100.00;102009.28;5052211;28;20043;-49
2023/10/07 09:09:37;;;;;;;15.88;5.30;;;;;;;23.08;100.00;101974.78;5052358;28;20131;-48
2023/10/07 09:12:10;;;;;;;13.35;4.65;;;;;;;23.43;100.00;101994.78;5052563;28;20085;-48
2023/10/07 09:14:40;;;;;;;15.80;5.00;;;;;;;23.57;100.00;102008.16;5051034;28;20476;-47
2023/10/07 09:17:09;;;;;;;13.18;4.40;;;;;;;23.67;100.00;102001.16;5034938;28;20033;-52
2023/10/07 09:19:35;;;;;;;13.98;4.88;;;;;;;23.31;100.00;101972.28;5051914;28;20491;-47
2023/10/07 09:22:10;;;;;;;13.13;5.07;;;;;;;23.29;100.00;102001.03;5051977;28;20499;-51
2023/10/07 09:24:40;;;;;;;15.07;4.68;;;;;;;23.37;100.00;102005.91;5051080;28;20037;-50
2023/10/07 09:27:10;;;;;;;10.80;4.78;;;;;;;23.14;100.00;102014.66;5051093;28;20086;-48
2023/10/07 09:29:37;;;;;;;16.00;5.07;;;;;;;22.77;100.00;101997.41;5052214;28;20037;-50
2023/10/07 09:32:16;;;;;;;15.25;5.40;;;;;;;22.54;100.00;102006.03;5052186;28;20456;-48
2023/10/07 09:34:42;;;;;;;13.20;4.68;;;;;;;22.16;100.00;101977.13;5052284;28;20044;-48
2023/10/07 09:37:17;;;;;;;12.55;5.07;;;;;;;22.14;100.00;102030.03;5052248;28;20387;-50
2023/10/07 09:39:44;;;;;;;15.88;5.78;;;;;;;22.02;100.00;101989.69;5051751;28;20033;-48
2023/10/07 09:42:26;;;;;;;12.88;4.55;;;;;;;22.29;100.00;102039.81;5051890;28;20036;-49
2023/10/07 09:44:54;;;;;;;13.63;4.45;;;;;;;22.31;100.00;102034.31;5051107;28;20029;-49
2023/10/07 09:47:21;;;;;;;8.15;3.65;;;;;;;22.33;100.00;102041.31;5050887;28;20047;-51
2023/10/07 09:49:47;;;;;;;13.20;4.75;;;;;;;22.27;100.00;102032.81;5052168;28;20036;-48
2023/10/07 09:52:16;;;;;;;15.70;4.68;;;;;;;22.07;100.00;102011.69;5050710;28;20032;-52
2023/10/07 09:55:07;;;;;;;11.82;5.20;;;;;;;22.43;100.00;102050.53;5050507;28;20486;-47
2023/10/07 09:57:47;;;;;;;15.27;5.28;;;;;;;22.51;100.00;102058.06;5051959;28;20033;-53
2023/10/07 10:03:15;;;;;;;8.07;3.60;;;;;;;22.31;100.00;102045.06;5050490;28;20366;-47
2023/10/07 10:06:25;;;;;;;13.63;3.97;;;;;;;22.28;100.00;102034.50;5051938;28;20037;-50
2023/10/07 10:09:08;;;;;;;11.80;4.03;;;;;;;21.94;100.00;101957.13;5051478;28;20041;-49
2023/10/07 10:16:48;;;;;;;11.93;3.70;;;;;;;22.51;100.00;102041.97;5051693;28;20092;-50
2023/10/07 10:19:25;;;;;;;16.00;4.57;;;;;;;22.42;100.00;102019.28;5051552;28;20040;-48
2023/10/07 10:21:54;;;;;;;13.00;4.43;;;;;;;22.69;100.00;102032.78;5051294;28;20088;-49
2023/10/07 10:24:28;;;;;;;12.75;4.28;;;;;;;22.51;100.00;101972.22;5051732;28;20094;-50
2023/10/07 10:27:09;;;;;;;11.57;4.05;;;;;;;22.75;100.00;101978.72;5054394;28;20043;-51
2023/10/07 10:29:52;;;;;;;11.10;4.20;;;;;;;23.69;100.00;102034.19;5053975;28;20108;-48
2023/10/07 10:32:23;;;;;;;7.85;4.03;;;;;;;23.95;100.00;102035.09;5055288;28;20368;-52
2023/10/07 10:34:52;;;;;;;7.70;3.70;;;;;;;23.57;100.00;101953.53;5054080;28;20033;-49
2023/10/07 10:37:19;;;;;;;11.00;4.32;;;;;;;23.89;100.00;101996.03;5054183;28;20062;-51
2023/10/07 10:39:45;;;;;;;15.43;4.55;;;;;;;23.89;100.00;102005.91;5054293;28;20065;-53
2023/10/07 10:42:13;;;;;;;10.95;4.20;;;;;;;24.19;100.00;102059.44;5055122;28;20079;-52
2023/10/07 10:44:39;;;;;;;9.65;3.78;;;;;;;23.92;100.00;102009.25;5055293;28;20044;-52
2023/10/07 10:47:07;;;;;;;8.48;3.70;;;;;;;24.31;100.00;102061.28;5053342;28;20392;-48
2023/10/07 10:49:35;;;;;;;10.75;4.35;;;;;;;24.49;100.00;102024.97;5054045;28;20066;-51
2023/10/07 10:52:02;;;;;;;14.30;4.65;;;;;;;24.86;100.00;102034.84;5053826;28;20040;-51
2023/10/07 10:54:28;;;;;;;9.93;4.07;;;;;;;25.15;100.00;102027.28;5055121;28;20387;-49
2023/10/07 10:56:58;;;;;;;8.52;4.63;;;;;;;25.73;100.00;102077.69;5053840;28;20160;-53
2023/10/07 10:59:42;;;;;;;8.60;4.00;;;;;;;26.14;100.00;102102.38;5055046;28;20077;-52
2023/10/07 11:02:17;;;;;;;9.55;4.45;;;;;;;25.80;100.00;102092.44;5053639;28;20403;-49
2023/10/07 11:04:56;;;;;;;8.38;3.70;;;;;;;25.28;100.00;102091.91;5053586;28;20078;-48
2023/10/07 11:07:22;;;;;;;9.35;3.72;;;;;;;25.23;100.00;102061.72;5053461;28;20040;-49
2023/10/07 11:09:49;;;;;;;10.07;3.92;;;;;;;25.10;100.00;102091.44;5054594;28;20033;-51
2023/10/07 11:12:17;;;;;;;8.95;4.10;;;;;;;24.97;100.00;102099.53;5052594;28;20036;-50
2023/10/07 11:14:44;;;;;;;9.07;4.25;;;;;;;25.24;100.00;102047.28;5053407;28;20104;-52
2023/10/07 11:17:10;;;;;;;7.30;3.90;;;;;;;26.45;100.00;102084.59;5053307;28;20494;-49
2023/10/07 11:19:53;;;;;;;9.32;3.95;;;;;;;27.51;100.00;102112.91;5054616;28;20037;-51
2023/10/07 11:22:19;;;;;;;10.77;4.53;;;;;;;27.01;100.00;102058.44;5054549;28;20143;-50
2023/10/07 11:24:50;;;;;;;8.95;4.18;;;;;;;26.49;100.00;102115.78;5054625;28;20104;-52
2023/10/07 11:27:18;;;;;;;9.90;4.45;;;;;;;25.54;100.00;102074.69;5054421;28;20028;-52
2023/10/07 11:29:44;;;;;;;11.50;4.05;;;;;;;26.34;100.00;102094.53;5054481;28;20410;-49
2023/10/07 11:32:12;;;;;;;8.30;4.00;;;;;;;26.69;100.00;102052.94;5053276;28;20190;-50
2023/10/07 11:34:40;;;;;;;10.45;3.83;;;;;;;27.01;100.00;102098.13;5036270;28;20033;-52
2023/10/07 11:37:09;;;;;;;10.15;3.70;;;;;;;26.72;100.00;102120.22;5053045;28;20495;-49
2023/10/07 11:39:38;;;;;;;8.75;3.90;;;;;;;26.08;100.00;102093.84;5053110;28;20128;-52
2023/10/07 11:42:05;;;;;;;8.63;4.47;;;;;;;25.81;100.00;102052.81;5054255;28;20492;-51
2023/10/07 11:44:31;;;;;;;9.40;3.30;;;;;;;26.12;100.00;102104.25;5054158;28;20486;-50
2023/10/07 11:46:56;;;;;;;8.77;3.65;;;;;;;25.31;100.00;102086.25;5052832;28;20033;-50
2023/10/07 11:49:22;;;;;;;13.98;4.70;;;;;;;25.00;100.00;102099.31;5053823;28;20037;-51
2023/10/07 11:51:48;;;;;;;13.07;4.93;;;;;;;24.79;100.00;102040.72;5054163;28;20119;-51
2023/10/07 11:54:13;;;;;;;7.50;3.70;;;;;;;24.83;100.00;102098.81;5054055;28;20491;-50
2023/10/07 11:56:39;;;;;;;11.57;4.80;;;;;;;23.89;100.00;102047.13;5054185;28;20029;-52
2023/10/07 11:59:05;;;;;;;11.02;4.72;;;;;;;23.70;100.00;102073.53;5054054;28;20044;-49
2023/10/07 12:01:32;;;;;;;12.18;4.65;;;;;;;23.03;100.00;102017.19;5053709;28;20451;-51
2023/10/07 12:03:58;;;;;;;10.32;4.05;;;;;;;23.24;100.00;102064.97;5053556;28;20136;-49
2023/10/07 12:06:24;;;;;;;10.85;4.38;;;;;;;23.18;100.00;102083.31;5054000;28;20468;-53
2023/10/07 12:08:50;;;;;;;10.43;4.18;;;;;;;23.29;100.00;102078.13;5053861;28;20384;-52
2023/10/07 12:11:18;;;;;;;9.40;4.13;;;;;;;22.57;100.00;102014.75;5053715;28;20037;-50
2023/10/07 12:13:45;;;;;;;10.38;4.10;;;;;;;22.84;100.00;102084.63;5053765;28;20223;-51